Time,TemperatureF,DewpointF,PressureIn,WindDirection,WindDirectionDegrees,WindSpeedMPH,WindSpeedGustMPH,Humidity,HourlyPrecipIn,Conditions,Clouds,dailyrainin,SolarRadiationWatts/m^2,SoftwareType,DateUTC
2013-01-14 00:02:00,31.0,15.0,-100.00,ENE,57,5.0,7.0,50,0.00,,,0.00,0.000000,,2013-01-14 08:02:00,
2013-01-14 00:11:00,27.0,15.0,-100.00,SW,215,2.0,5.0,60,0.00,,,0.00,0.000000,,2013-01-14 08:11:00,
2013-01-14 00:33:00,27.0,15.0,-100.00,SW,215,2.0,5.0,60,0.00,,,0.00,0.000000,,2013-01-14 08:33:00,
2013-01-14 00:43:00,27.0,15.0,-100.00,SW,215,2.0,5.0,60,0.00,,,0.00,0.000000,,2013-01-14 08:43:00,
2013-01-14 00:53:00,27.0,15.0,-100.00,SW,215,2.0,5.0,60,0.00,,,0.00,0.000000,,2013-01-14 08:53:00,
2013-01-14 01:02:00,27.0,15.0,-100.00,SW,215,2.0,5.0,60,0.00,,,0.00,0.000000,,2013-01-14 09:02:00,
2013-01-14 01:11:00,29.0,13.0,-100.00,East,84,5.0,9.0,50,0.00,,,0.00,0.000000,,2013-01-14 09:11:00,
2013-01-14 01:34:00,29.0,13.0,-100.00,East,84,5.0,9.0,50,0.00,,,0.00,0.000000,,2013-01-14 09:34:00,
2013-01-14 01:43:00,29.0,13.0,-100.00,East,84,5.0,9.0,50,0.00,,,0.00,0.000000,,2013-01-14 09:43:00,
2013-01-14 01:53:00,29.0,13.0,-100.00,East,84,5.0,9.0,50,0.00,,,0.00,0.000000,,2013-01-14 09:53:00,
2013-01-14 02:02:00,29.0,13.0,-100.00,East,84,5.0,9.0,50,0.00,,,0.00,0.000000,,2013-01-14 10:02:00,
2013-01-14 02:11:00,29.0,13.0,-100.00,ESE,122,3.0,10.0,51,0.00,,,0.00,0.000000,,2013-01-14 10:11:00,
2013-01-14 02:33:00,29.0,13.0,-100.00,ESE,122,3.0,10.0,51,0.00,,,0.00,0.000000,,2013-01-14 10:33:00,
2013-01-14 02:43:00,29.0,13.0,-100.00,ESE,122,3.0,10.0,51,0.00,,,0.00,0.000000,,2013-01-14 10:43:00,
2013-01-14 02:52:00,29.0,13.0,-100.00,ESE,122,3.0,10.0,51,0.00,,,0.00,0.000000,,2013-01-14 10:52:00,
2013-01-14 03:02:00,29.0,13.0,-100.00,ESE,122,3.0,10.0,51,0.00,,,0.00,0.000000,,2013-01-14 11:02:00,
2013-01-14 03:11:00,29.0,12.0,-100.00,East,93,6.0,9.0,49,0.00,,,0.00,0.000000,,2013-01-14 11:11:00,
2013-01-14 03:43:00,29.0,12.0,-100.00,East,93,6.0,9.0,49,0.00,,,0.00,0.000000,,2013-01-14 11:43:00,
2013-01-14 03:53:00,29.0,12.0,-100.00,East,93,6.0,9.0,49,0.00,,,0.00,0.000000,,2013-01-14 11:53:00,
2013-01-14 04:02:00,29.0,12.0,-100.00,East,93,6.0,9.0,49,0.00,,,0.00,0.000000,,2013-01-14 12:02:00,
2013-01-14 04:11:00,28.0,12.0,-100.00,ESE,108,6.0,10.0,50,0.00,,,0.00,0.000000,,2013-01-14 12:11:00,
2013-01-14 04:33:00,28.0,12.0,-100.00,ESE,108,6.0,10.0,50,0.00,,,0.00,0.000000,,2013-01-14 12:33:00,
2013-01-14 04:43:00,28.0,12.0,-100.00,ESE,108,6.0,10.0,50,0.00,,,0.00,0.000000,,2013-01-14 12:43:00,
2013-01-14 04:53:00,28.0,12.0,-100.00,ESE,108,6.0,10.0,50,0.00,,,0.00,0.000000,,2013-01-14 12:53:00,
2013-01-14 05:03:00,28.0,12.0,-100.00,ESE,108,6.0,10.0,50,0.00,,,0.00,0.000000,,2013-01-14 13:03:00,
2013-01-14 05:11:00,31.0,11.0,-100.00,ENE,72,9.0,12.0,42,0.00,,,0.00,0.000000,,2013-01-14 13:11:00,
2013-01-14 05:33:00,31.0,11.0,-100.00,ENE,72,9.0,12.0,42,0.00,,,0.00,0.000000,,2013-01-14 13:33:00,
2013-01-14 05:43:00,31.0,11.0,-100.00,ENE,72,9.0,12.0,42,0.00,,,0.00,0.000000,,2013-01-14 13:43:00,
2013-01-14 05:53:00,31.0,11.0,-100.00,ENE,72,9.0,12.0,42,0.00,,,0.00,0.000000,,2013-01-14 13:53:00,
2013-01-14 06:02:00,31.0,11.0,-100.00,ENE,72,9.0,12.0,42,0.00,,,0.00,0.000000,,2013-01-14 14:02:00,
2013-01-14 06:11:00,28.0,12.0,-100.00,South,189,1.0,15.0,51,0.00,,,0.00,0.000000,,2013-01-14 14:11:00,
2013-01-14 06:33:00,28.0,12.0,-100.00,South,189,1.0,15.0,51,0.00,,,0.00,0.000000,,2013-01-14 14:33:00,
2013-01-14 06:43:00,28.0,12.0,-100.00,South,189,1.0,15.0,51,0.00,,,0.00,0.000000,,2013-01-14 14:43:00,
2013-01-14 06:53:00,28.0,12.0,-100.00,South,189,1.0,15.0,51,0.00,,,0.00,0.000000,,2013-01-14 14:53:00,
2013-01-14 07:03:00,28.0,12.0,-100.00,South,189,1.0,15.0,51,0.00,,,0.00,0.000000,,2013-01-14 15:03:00,
2013-01-14 07:11:00,30.0,12.0,-100.00,East,98,8.0,12.0,46,0.00,,,0.00,0.000000,,2013-01-14 15:11:00,
2013-01-14 07:33:00,30.0,12.0,-100.00,East,98,8.0,12.0,46,0.00,,,0.00,0.000000,,2013-01-14 15:33:00,
2013-01-14 07:43:00,30.0,12.0,-100.00,East,98,8.0,12.0,46,0.00,,,0.00,0.000000,,2013-01-14 15:43:00,
2013-01-14 07:53:00,30.0,12.0,-100.00,East,98,8.0,12.0,46,0.00,,,0.00,0.000000,,2013-01-14 15:53:00,
2013-01-14 08:02:00,30.0,12.0,-100.00,East,98,8.0,12.0,46,0.00,,,0.00,0.000000,,2013-01-14 16:02:00,
2013-01-14 08:11:00,32.0,12.0,-100.00,East,82,6.0,15.0,42,0.00,,,0.00,36.000000,,2013-01-14 16:11:00,
2013-01-14 08:33:00,32.0,12.0,-100.00,East,82,6.0,15.0,42,0.00,,,0.00,36.000000,,2013-01-14 16:33:00,
2013-01-14 08:43:00,32.0,12.0,-100.00,East,82,6.0,15.0,42,0.00,,,0.00,36.000000,,2013-01-14 16:43:00,
2013-01-14 08:53:00,32.0,12.0,-100.00,East,82,6.0,15.0,42,0.00,,,0.00,36.000000,,2013-01-14 16:53:00,
2013-01-14 09:03:00,32.0,12.0,-100.00,East,82,6.0,15.0,42,0.00,,,0.00,36.000000,,2013-01-14 17:03:00,
2013-01-14 09:33:00,40.0,17.0,-100.00,SE,141,2.0,8.0,39,0.00,,,0.00,209.000000,,2013-01-14 17:33:00,
2013-01-14 10:33:00,42.0,11.0,-100.00,SSE,153,8.0,11.0,28,0.00,,,0.00,359.000000,,2013-01-14 18:33:00,
2013-01-14 10:43:00,42.0,11.0,-100.00,SSE,153,8.0,11.0,28,0.00,,,0.00,359.000000,,2013-01-14 18:43:00,
2013-01-14 10:53:00,42.0,11.0,-100.00,SSE,153,8.0,11.0,28,0.00,,,0.00,359.000000,,2013-01-14 18:53:00,
2013-01-14 11:11:00,46.0,11.0,-100.00,East,84,4.0,12.0,24,0.00,,,0.00,473.000000,,2013-01-14 19:11:00,
2013-01-14 11:43:00,46.0,11.0,-100.00,East,84,4.0,12.0,24,0.00,,,0.00,473.000000,,2013-01-14 19:43:00,
2013-01-14 11:53:00,46.0,11.0,-100.00,East,84,4.0,12.0,24,0.00,,,0.00,473.000000,,2013-01-14 19:53:00,
2013-01-14 12:03:00,46.0,11.0,-100.00,East,84,4.0,12.0,24,0.00,,,0.00,473.000000,,2013-01-14 20:03:00,
2013-01-14 12:11:00,48.0,14.0,-100.00,West,280,6.0,10.0,25,0.00,,,0.00,536.000000,,2013-01-14 20:11:00,
2013-01-14 12:33:00,48.0,14.0,-100.00,West,280,6.0,10.0,25,0.00,,,0.00,536.000000,,2013-01-14 20:33:00,
2013-01-14 12:43:00,48.0,14.0,-100.00,West,280,6.0,10.0,25,0.00,,,0.00,536.000000,,2013-01-14 20:43:00,
2013-01-14 12:53:00,48.0,14.0,-100.00,West,280,6.0,10.0,25,0.00,,,0.00,536.000000,,2013-01-14 20:53:00,
2013-01-14 13:02:00,48.0,14.0,-100.00,West,280,6.0,10.0,25,0.00,,,0.00,536.000000,,2013-01-14 21:02:00,
2013-01-14 13:33:00,47.0,13.0,-100.00,WNW,303,8.0,12.0,25,0.00,,,0.00,541.000000,,2013-01-14 21:33:00,
2013-01-14 13:43:00,47.0,13.0,-100.00,WNW,303,8.0,12.0,25,0.00,,,0.00,541.000000,,2013-01-14 21:43:00,
2013-01-14 13:53:00,47.0,13.0,-100.00,WNW,303,8.0,12.0,25,0.00,,,0.00,541.000000,,2013-01-14 21:53:00,
2013-01-14 14:11:00,49.0,15.0,-100.00,WNW,303,6.0,11.0,25,0.00,,,-99.99,489.000000,,2013-01-14 22:11:00,
2013-01-14 14:33:00,49.0,15.0,-100.00,WNW,303,6.0,11.0,25,0.00,,,-99.99,489.000000,,2013-01-14 22:33:00,
2013-01-14 14:43:00,49.0,15.0,-100.00,WNW,303,6.0,11.0,25,0.00,,,-99.99,489.000000,,2013-01-14 22:43:00,
2013-01-14 14:52:00,49.0,15.0,-100.00,WNW,303,6.0,11.0,25,0.00,,,-99.99,489.000000,,2013-01-14 22:52:00,
2013-01-14 15:02:00,49.0,15.0,-100.00,WNW,303,6.0,11.0,25,0.00,,,-99.99,489.000000,,2013-01-14 23:02:00,
2013-01-14 15:11:00,50.0,16.0,-100.00,WNW,289,6.0,11.0,25,0.00,,,0.00,385.000000,,2013-01-14 23:11:00,
2013-01-14 15:33:00,50.0,16.0,-100.00,WNW,289,6.0,11.0,25,0.00,,,0.00,385.000000,,2013-01-14 23:33:00,
2013-01-14 15:43:00,50.0,16.0,-100.00,WNW,289,6.0,11.0,25,0.00,,,0.00,385.000000,,2013-01-14 23:43:00,
2013-01-14 15:53:00,50.0,16.0,-100.00,WNW,289,6.0,11.0,25,0.00,,,0.00,385.000000,,2013-01-14 23:53:00,
2013-01-14 16:02:00,50.0,16.0,-100.00,WNW,289,6.0,11.0,25,0.00,,,0.00,385.000000,,2013-01-15 00:02:00,
2013-01-14 16:33:00,47.0,6.0,-100.00,NW,325,8.0,16.0,18,0.00,,,0.00,163.000000,,2013-01-15 00:33:00,
2013-01-14 18:11:00,38.0,13.0,-100.00,East,81,4.0,10.0,36,-99.99,,,0.00,2.000000,,2013-01-15 02:11:00,
2013-01-14 18:33:00,38.0,13.0,-100.00,East,81,4.0,10.0,36,-99.99,,,0.00,2.000000,,2013-01-15 02:33:00,
2013-01-14 18:42:00,38.0,13.0,-100.00,East,81,4.0,10.0,36,-99.99,,,0.00,2.000000,,2013-01-15 02:42:00,
2013-01-14 18:53:00,38.0,13.0,-100.00,East,81,4.0,10.0,36,-99.99,,,0.00,2.000000,,2013-01-15 02:53:00,
2013-01-14 19:02:00,38.0,13.0,-100.00,East,81,4.0,10.0,36,-99.99,,,0.00,2.000000,,2013-01-15 03:02:00,
2013-01-14 19:33:00,36.0,15.0,-100.00,East,92,4.0,8.0,41,0.00,,,0.00,0.000000,,2013-01-15 03:33:00,
2013-01-14 19:42:00,36.0,15.0,-100.00,East,92,4.0,8.0,41,0.00,,,0.00,0.000000,,2013-01-15 03:42:00,
2013-01-14 19:52:00,36.0,15.0,-100.00,East,92,4.0,8.0,41,0.00,,,0.00,0.000000,,2013-01-15 03:52:00,
2013-01-14 20:02:00,36.0,15.0,-100.00,East,92,4.0,8.0,41,0.00,,,0.00,0.000000,,2013-01-15 04:02:00,
2013-01-14 20:11:00,34.0,14.0,-100.00,East,92,5.0,7.0,44,0.00,,,0.00,0.000000,,2013-01-15 04:11:00,
2013-01-14 20:33:00,34.0,14.0,-100.00,East,92,5.0,7.0,44,0.00,,,0.00,0.000000,,2013-01-15 04:33:00,
2013-01-14 21:11:00,34.0,14.0,-100.00,ESE,121,4.0,6.0,44,0.00,,,0.00,0.000000,,2013-01-15 05:11:00,
2013-01-14 21:33:00,34.0,14.0,-100.00,ESE,121,4.0,6.0,44,0.00,,,0.00,0.000000,,2013-01-15 05:33:00,
2013-01-14 21:42:00,34.0,14.0,-100.00,ESE,121,4.0,6.0,44,0.00,,,0.00,0.000000,,2013-01-15 05:42:00,
2013-01-14 21:52:00,34.0,14.0,-100.00,ESE,121,4.0,6.0,44,0.00,,,0.00,0.000000,,2013-01-15 05:52:00,
2013-01-14 22:02:00,34.0,14.0,-100.00,ESE,121,4.0,6.0,44,0.00,,,0.00,0.000000,,2013-01-15 06:02:00,
2013-01-14 22:11:00,36.0,13.0,-100.00,ENE,68,6.0,11.0,38,0.00,,,0.00,0.000000,,2013-01-15 06:11:00,
2013-01-14 22:33:00,36.0,13.0,-100.00,ENE,68,6.0,11.0,38,0.00,,,0.00,0.000000,,2013-01-15 06:33:00,
2013-01-14 23:02:00,36.0,13.0,-100.00,ENE,68,6.0,11.0,38,0.00,,,0.00,0.000000,,2013-01-15 07:02:00,
2013-01-14 23:11:00,34.0,14.0,-100.00,ESE,107,4.0,7.0,43,0.00,,,0.00,0.000000,,2013-01-15 07:11:00,
2013-01-14 23:33:00,34.0,14.0,-100.00,ESE,107,4.0,7.0,43,0.00,,,0.00,0.000000,,2013-01-15 07:33:00,
2013-01-14 23:43:00,34.0,14.0,-100.00,ESE,107,4.0,7.0,43,0.00,,,0.00,0.000000,,2013-01-15 07:43:00,
2013-01-14 23:52:00,34.0,14.0,-100.00,ESE,107,4.0,7.0,43,0.00,,,0.00,0.000000,,2013-01-15 07:52:00,